sensor_id;sensor_type;location;lat;lon;timestamp;pressure;altitude;pressure_sealevel;temperature;humidity
55277;BME280;41136;51.478;-2.610;2023-09-08T00:31:08;100756.29;;;28.00;81.85
55277;BME280;41136;51.478;-2.610;2023-09-08T00:33:33;100754.41;;;27.51;82.99
55277;BME280;41136;51.478;-2.610;2023-09-08T00:35:59;100757.45;;;27.12;83.98
55277;BME280;41136;51.478;-2.610;2023-09-08T00:38:24;100760.57;;;27.26;83.80
55277;BME280;41136;51.478;-2.610;2023-09-08T00:40:49;100761.51;;;28.11;83.47
55277;BME280;41136;51.478;-2.610;2023-09-08T00:43:14;100760.20;;;27.56;85.43
55277;BME280;41136;51.478;-2.610;2023-09-08T00:45:42;100760.34;;;27.50;84.81
55277;BME280;41136;51.478;-2.610;2023-09-08T00:48:06;100757.62;;;27.21;85.38
55277;BME280;41136;51.478;-2.610;2023-09-08T00:50:31;100756.13;;;27.09;85.64
55277;BME280;41136;51.478;-2.610;2023-09-08T00:52:56;100759.47;;;27.94;84.05
55277;BME280;41136;51.478;-2.610;2023-09-08T00:55:21;100759.71;;;28.08;81.92
55277;BME280;41136;51.478;-2.610;2023-09-08T00:57:47;100762.02;;;27.67;82.19
55277;BME280;41136;51.478;-2.610;2023-09-08T01:00:13;100762.43;;;27.65;82.24
55277;BME280;41136;51.478;-2.610;2023-09-08T01:02:37;100758.44;;;27.39;82.71
55277;BME280;41136;51.478;-2.610;2023-09-08T01:05:03;100754.10;;;27.17;83.18
55277;BME280;41136;51.478;-2.610;2023-09-08T01:07:30;100752.24;;;27.09;83.00
55277;BME280;41136;51.478;-2.610;2023-09-08T01:09:54;100748.44;;;27.29;82.36
55277;BME280;41136;51.478;-2.610;2023-09-08T01:12:19;100746.68;;;27.46;81.54
55277;BME280;41136;51.478;-2.610;2023-09-08T01:14:44;100751.23;;;27.42;81.69
55277;BME280;41136;51.478;-2.610;2023-09-08T01:17:10;100750.77;;;27.59;80.87
55277;BME280;41136;51.478;-2.610;2023-09-08T01:19:36;100747.00;;;27.59;81.33
55277;BME280;41136;51.478;-2.610;2023-09-08T01:22:12;100751.55;;;26.84;82.02
55277;BME280;41136;51.478;-2.610;2023-09-08T01:24:39;100746.39;;;26.89;81.64
55277;BME280;41136;51.478;-2.610;2023-09-08T01:26:53;100742.00;;;27.35;79.82
55277;BME280;41136;51.478;-2.610;2023-09-08T01:29:19;100737.47;;;27.78;79.68
55277;BME280;41136;51.478;-2.610;2023-09-08T01:31:43;100735.71;;;27.66;79.41
55277;BME280;41136;51.478;-2.610;2023-09-08T01:34:09;100738.06;;;26.74;80.07
55277;BME280;41136;51.478;-2.610;2023-09-08T01:36:34;100734.22;;;27.31;80.50
55277;BME280;41136;51.478;-2.610;2023-09-08T01:39:00;100730.16;;;27.15;80.52
55277;BME280;41136;51.478;-2.610;2023-09-08T01:41:25;100732.13;;;27.41;80.80
55277;BME280;41136;51.478;-2.610;2023-09-08T01:43:50;100730.11;;;27.05;81.10
55277;BME280;41136;51.478;-2.610;2023-09-08T01:46:16;100726.49;;;26.74;82.48
55277;BME280;41136;51.478;-2.610;2023-09-08T01:48:41;100726.75;;;26.37;83.52
55277;BME280;41136;51.478;-2.610;2023-09-08T01:51:07;100728.05;;;26.32;83.66
55277;BME280;41136;51.478;-2.610;2023-09-08T01:53:32;100725.68;;;27.20;83.24
55277;BME280;41136;51.478;-2.610;2023-09-08T01:55:57;100722.47;;;26.73;84.37
55277;BME280;41136;51.478;-2.610;2023-09-08T01:58:23;100726.99;;;26.71;85.12
55277;BME280;41136;51.478;-2.610;2023-09-08T02:00:50;100732.28;;;26.58;84.85
55277;BME280;41136;51.478;-2.610;2023-09-08T02:03:15;100732.94;;;26.37;85.38
55277;BME280;41136;51.478;-2.610;2023-09-08T02:05:40;100737.41;;;25.98;85.74
55277;BME280;41136;51.478;-2.610;2023-09-08T02:08:05;100738.26;;;25.53;88.06
55277;BME280;41136;51.478;-2.610;2023-09-08T02:10:31;100740.53;;;25.84;87.70
55277;BME280;41136;51.478;-2.610;2023-09-08T02:12:56;100736.28;;;26.16;86.13
55277;BME280;41136;51.478;-2.610;2023-09-08T02:15:22;100741.05;;;25.93;86.76
55277;BME280;41136;51.478;-2.610;2023-09-08T02:17:52;100738.21;;;26.49;85.18
55277;BME280;41136;51.478;-2.610;2023-09-08T02:20:14;100735.87;;;26.73;84.24
55277;BME280;41136;51.478;-2.610;2023-09-08T02:22:39;100734.71;;;26.63;84.39
55277;BME280;41136;51.478;-2.610;2023-09-08T02:25:05;100733.65;;;26.32;84.93
55277;BME280;41136;51.478;-2.610;2023-09-08T02:27:29;100735.95;;;26.56;84.43
55277;BME280;41136;51.478;-2.610;2023-09-08T02:29:55;100743.23;;;25.97;85.83
55277;BME280;41136;51.478;-2.610;2023-09-08T02:32:20;100737.21;;;26.44;84.89
55277;BME280;41136;51.478;-2.610;2023-09-08T02:34:46;100735.59;;;26.85;84.60
55277;BME280;41136;51.478;-2.610;2023-09-08T02:37:12;100730.95;;;26.51;84.81
55277;BME280;41136;51.478;-2.610;2023-09-08T02:39:37;100728.81;;;26.55;84.48
55277;BME280;41136;51.478;-2.610;2023-09-08T02:42:03;100723.86;;;26.50;84.35
55277;BME280;41136;51.478;-2.610;2023-09-08T02:44:28;100721.70;;;26.34;85.01
55277;BME280;41136;51.478;-2.610;2023-09-08T02:46:54;100717.74;;;26.52;85.09
55277;BME280;41136;51.478;-2.610;2023-09-08T02:49:19;100716.49;;;26.08;85.97
55277;BME280;41136;51.478;-2.610;2023-09-08T02:51:45;100715.88;;;25.91;87.13
55277;BME280;41136;51.478;-2.610;2023-09-08T02:54:10;100712.52;;;25.53;87.58
55277;BME280;41136;51.478;-2.610;2023-09-08T02:56:36;100712.94;;;26.00;87.29
55277;BME280;41136;51.478;-2.610;2023-09-08T02:59:02;100712.55;;;25.92;86.89
55277;BME280;41136;51.478;-2.610;2023-09-08T03:01:27;100714.64;;;26.11;86.97
55277;BME280;41136;51.478;-2.610;2023-09-08T03:03:52;100714.56;;;26.17;86.34
55277;BME280;41136;51.478;-2.610;2023-09-08T03:06:19;100714.88;;;26.18;86.20
55277;BME280;41136;51.478;-2.610;2023-09-08T03:08:43;100719.53;;;25.54;87.80
55277;BME280;41136;51.478;-2.610;2023-09-08T03:11:08;100723.12;;;25.09;90.33
55277;BME280;41136;51.478;-2.610;2023-09-08T03:13:34;100719.50;;;25.98;89.36
55277;BME280;41136;51.478;-2.610;2023-09-08T03:16:03;100721.97;;;26.43;87.15
55277;BME280;41136;51.478;-2.610;2023-09-08T03:18:25;100723.52;;;26.22;86.68
55277;BME280;41136;51.478;-2.610;2023-09-08T03:20:51;100725.78;;;25.70;88.42
55277;BME280;41136;51.478;-2.610;2023-09-08T03:23:17;100724.15;;;25.13;89.59
55277;BME280;41136;51.478;-2.610;2023-09-08T03:25:42;100720.54;;;25.56;90.91
55277;BME280;41136;51.478;-2.610;2023-09-08T03:28:07;100716.09;;;25.45;89.78
55277;BME280;41136;51.478;-2.610;2023-09-08T03:30:33;100715.86;;;25.41;89.66
55277;BME280;41136;51.478;-2.610;2023-09-08T03:32:59;100708.49;;;26.71;87.55
55277;BME280;41136;51.478;-2.610;2023-09-08T21:19:05;100760.16;;;26.06;77.94
55277;BME280;41136;51.478;-2.610;2023-09-08T21:21:31;100771.53;;;27.41;73.96
55277;BME280;41136;51.478;-2.610;2023-09-08T21:23:56;100774.73;;;27.40;72.67
55277;BME280;41136;51.478;-2.610;2023-09-08T21:26:22;100772.44;;;27.39;72.80
55277;BME280;41136;51.478;-2.610;2023-09-08T21:28:48;100768.57;;;27.39;74.08
55277;BME280;41136;51.478;-2.610;2023-09-08T21:31:13;100767.51;;;26.96;79.10
55277;BME280;41136;51.478;-2.610;2023-09-08T21:33:38;100766.70;;;26.78;79.84
55277;BME280;41136;51.478;-2.610;2023-09-08T21:36:04;100767.96;;;26.64;79.31
